Terminal Aerodrome Forecast
Issued by NWS

Home | Current Version | Previous Version | Text Only | Print | Product List | Glossary On
Versions: 1 2 3 4 5 6 7 8 9 10 11 12 13 14 15 16 17 18 19 20 21 22 23 24 25 26 27
000
FTUS44 KHGX 180323 AAA
TAFIAH
TAF AMD
KIAH 180323Z 1803/1906 11009KT P6SM SCT020 BKN060
     FM181100 36004KT P6SM SCT015 BKN040
     FM181500 03009KT P6SM SCT045
     FM190200 VRB04KT P6SM SKC=

USA.gov is the U.S. government's official web portal to all federal, state and local government web resources and services.